Time;durP1;ratioP1;P1;durP2;ratioP2;P2;SDS_P1;SDS_P2;PMS_P1;PMS_P2;Temp;Humidity;BMP_temperature;BMP_pressure;BME280_temperature;BME280_humidity;BME280_pressure;Samples;Min_cycle;Max_cycle;Signal;HPM_P1;HPM_P2
2022/03/01 00:01:50;;;;;;;;;;;;;;;18.59;40.32;101705.75;4416153;32;20328;-72
2022/03/01 00:04:15;;;;;;;;;;;;;;;18.57;40.43;101705.44;4416763;32;19993;-71
2022/03/01 00:06:41;;;;;;;;;;;;;;;18.64;40.46;101705.94;4416624;32;20012;-71
2022/03/01 00:09:07;;;;;;;;;;;;;;;18.68;40.71;101709.41;4418540;32;20437;-71
2022/03/01 00:11:32;;;;;;;;;;;;;;;18.79;40.46;101711.81;4395483;32;20005;-70
2022/03/01 00:13:58;;;;;;;;;;;;;;;18.58;40.63;101707.81;4416107;32;19964;-71
2022/03/01 00:16:24;;;;;;;;;;;;;;;18.67;40.75;101713.53;4416813;32;20004;-70
2022/03/01 00:18:49;;;;;;;;;;;;;;;18.75;40.81;101720.50;4416014;32;20017;-70
2022/03/01 00:21:15;;;;;;;;;;;;;;;18.80;40.49;101716.25;4412214;32;20120;-69
2022/03/01 00:23:40;;;;;;;;;;;;;;;18.80;40.56;101722.75;4413092;32;20633;-70
2022/03/01 00:26:06;;;;;;;;;;;;;;;18.79;40.56;101718.31;4415429;32;20281;-70
2022/03/01 00:28:31;;;;;;;;;;;;;;;18.62;40.89;101716.22;4414688;32;20008;-71
2022/03/01 00:30:57;;;;;;;;;;;;;;;18.58;41.06;101713.50;4412191;32;20005;-70
2022/03/01 00:33:23;;;;;;;;;;;;;;;18.22;41.37;101716.19;4412989;32;20191;-70
2022/03/01 00:35:49;;;;;;;;;;;;;;;18.34;41.18;101717.34;4412925;32;20335;-70
2022/03/01 00:38:14;;;;;;;;;;;;;;;18.29;41.25;101726.50;4418544;32;19965;-70
2022/03/01 00:40:40;;;;;;;;;;;;;;;18.17;41.70;101718.84;4410607;32;20004;-71
2022/03/01 00:43:06;;;;;;;;;;;;;;;18.17;41.62;101724.56;4413167;32;19961;-70
2022/03/01 00:45:31;;;;;;;;;;;;;;;18.19;41.86;101731.34;4414045;32;19985;-70
2022/03/01 00:47:57;;;;;;;;;;;;;;;18.43;41.65;101725.94;4416149;32;19995;-70
2022/03/01 00:50:23;;;;;;;;;;;;;;;18.31;41.36;101736.16;4415252;32;19977;-70
2022/03/01 00:52:48;;;;;;;;;;;;;;;18.28;41.42;101730.62;4415165;32;19996;-71
2022/03/01 00:55:14;;;;;;;;;;;;;;;18.24;41.39;101741.34;4414458;32;20017;-70
2022/03/01 00:57:39;;;;;;;;;;;;;;;18.08;41.53;101747.28;4416379;32;19957;-70
2022/03/01 01:00:05;;;;;;;;;;;;;;;18.08;41.79;101739.56;4416775;32;20467;-71
2022/03/01 01:02:31;;;;;;;;;;;;;;;18.08;41.96;101756.66;4414637;32;19997;-70
2022/03/01 01:04:56;;;;;;;;;;;;;;;17.91;42.31;101749.56;4415410;32;20051;-70
2022/03/01 01:07:22;;;;;;;;;;;;;;;17.87;42.44;101757.44;4418715;32;19967;-70
2022/03/01 01:09:47;;;;;;;;;;;;;;;17.77;42.29;101755.81;4409928;32;20017;-70
2022/03/01 01:12:14;;;;;;;;;;;;;;;17.83;42.44;101763.28;4410445;32;20000;-70
2022/03/01 01:14:39;;;;;;;;;;;;;;;17.87;42.47;101772.50;4408298;32;19957;-70
2022/03/01 01:17:04;;;;;;;;;;;;;;;17.83;42.57;101768.97;4409369;32;20893;-70
2022/03/01 01:19:30;;;;;;;;;;;;;;;17.70;42.78;101771.09;4410526;32;19997;-70
2022/03/01 01:24:41;;;;;;;;;;;;;;;17.61;42.93;101776.72;4410375;32;20388;-70
2022/03/01 01:27:07;;;;;;;;;;;;;;;17.52;43.29;101782.31;4407459;32;19994;-70
2022/03/01 01:29:32;;;;;;;;;;;;;;;17.21;43.46;101774.91;4408740;32;19961;-70
2022/03/01 01:31:58;;;;;;;;;;;;;;;17.22;43.56;101777.31;4394772;32;19995;-70
2022/03/01 01:34:23;;;;;;;;;;;;;;;17.25;43.45;101787.72;4410362;32;19954;-70
2022/03/01 01:36:49;;;;;;;;;;;;;;;17.11;43.73;101785.41;4410501;32;20014;-70
2022/03/01 01:39:14;;;;;;;;;;;;;;;17.08;43.78;101788.34;4396477;32;20331;-70
2022/03/01 01:41:40;;;;;;;;;;;;;;;17.02;43.82;101790.19;4400917;32;20009;-70
2022/03/01 01:44:06;;;;;;;;;;;;;;;17.08;43.69;101791.19;4412201;32;20007;-70
2022/03/01 01:46:31;;;;;;;;;;;;;;;16.98;44.00;101789.50;4412337;32;19985;-70
2022/03/01 01:48:57;;;;;;;;;;;;;;;16.88;44.07;101785.75;4407667;32;20016;-70
2022/03/01 01:51:24;;;;;;;;;;;;;;;16.90;44.04;101796.69;4409961;32;19997;-70
2022/03/01 01:53:50;;;;;;;;;;;;;;;16.90;44.13;101805.22;4408156;32;20039;-70
2022/03/01 01:56:16;;;;;;;;;;;;;;;16.87;44.09;101806.94;4409878;32;19998;-70
2022/03/01 01:58:42;;;;;;;;;;;;;;;16.80;44.26;101810.00;4407107;32;19997;-70
2022/03/01 02:01:08;;;;;;;;;;;;;;;16.71;44.30;101809.91;4410220;32;20016;-70
2022/03/01 02:03:33;;;;;;;;;;;;;;;16.74;44.29;101806.16;4410808;32;20299;-70
2022/03/01 02:06:00;;;;;;;;;;;;;;;16.69;44.23;101803.09;4410416;32;19950;-70
2022/03/01 02:08:29;;;;;;;;;;;;;;;16.73;44.26;101809.44;4408706;32;20000;-70
2022/03/01 02:10:55;;;;;;;;;;;;;;;16.65;44.41;101810.91;4408639;32;19981;-70
2022/03/01 02:13:22;;;;;;;;;;;;;;;16.57;44.32;101815.25;4410142;32;19976;-70
2022/03/01 02:15:48;;;;;;;;;;;;;;;16.49;44.65;101817.50;4409590;32;20002;-70
2022/03/01 02:18:13;;;;;;;;;;;;;;;16.41;44.66;101823.84;4410811;32;20189;-70
2022/03/01 02:20:39;;;;;;;;;;;;;;;16.25;44.98;101823.91;4410925;32;19965;-70
2022/03/01 02:23:05;;;;;;;;;;;;;;;16.28;44.98;101832.34;4410989;32;19998;-70
2022/03/01 02:25:30;;;;;;;;;;;;;;;16.11;45.35;101824.34;4409209;32;20014;-70
2022/03/01 02:27:56;;;;;;;;;;;;;;;16.24;45.07;101831.66;4410345;32;20008;-70
2022/03/01 02:30:21;;;;;;;;;;;;;;;16.25;45.01;101821.88;4408678;32;20369;-70
2022/03/01 02:32:47;;;;;;;;;;;;;;;16.30;44.59;101838.38;4409057;32;20413;-70
2022/03/01 02:35:13;;;;;;;;;;;;;;;16.28;44.68;101838.03;4411835;32;19997;-70
2022/03/01 02:37:39;;;;;;;;;;;;;;;16.26;44.33;101834.81;4410686;32;19965;-70
2022/03/01 02:40:06;;;;;;;;;;;;;;;16.37;44.44;101840.19;4409444;32;19958;-70
2022/03/01 02:42:31;;;;;;;;;;;;;;;16.37;44.46;101837.34;4410281;32;21033;-70
2022/03/01 02:44:57;;;;;;;;;;;;;;;16.30;44.42;101843.25;4409178;32;20015;-70
2022/03/01 02:47:23;;;;;;;;;;;;;;;16.28;44.19;101840.84;4409871;32;19969;-70
2022/03/01 02:49:48;;;;;;;;;;;;;;;16.40;43.90;101844.97;4411257;32;20001;-70
2022/03/01 02:52:14;;;;;;;;;;;;;;;16.17;44.58;101850.94;4408666;32;19962;-70
2022/03/01 02:54:39;;;;;;;;;;;;;;;16.23;44.54;101855.59;4412297;32;20376;-70
2022/03/01 02:57:06;;;;;;;;;;;;;;;16.24;44.55;101845.84;4407947;32;19962;-70
2022/03/01 02:59:32;;;;;;;;;;;;;;;16.18;44.21;101852.53;4409261;32;20010;-70
2022/03/01 03:01:58;;;;;;;;;;;;;;;16.30;44.24;101858.25;4409951;32;19989;-70
2022/03/01 03:04:24;;;;;;;;;;;;;;;15.87;44.75;101849.38;4410631;32;20107;-70
2022/03/01 03:06:49;;;;;;;;;;;;;;;16.15;44.44;101847.75;4409217;32;19993;-70
2022/03/01 03:09:15;;;;;;;;;;;;;;;16.15;44.32;101862.75;4412226;32;20011;-70
2022/03/01 03:11:41;;;;;;;;;;;;;;;16.07;44.48;101874.78;4415589;32;19964;-70
2022/03/01 03:14:07;;;;;;;;;;;;;;;16.09;44.39;101860.91;4416632;32;20312;-70
2022/03/01 03:16:32;;;;;;;;;;;;;;;15.93;44.10;101858.94;4420818;32;19949;-70
2022/03/01 03:18:58;;;;;;;;;;;;;;;16.01;44.01;101860.31;4422624;32;19962;-70
2022/03/01 03:21:23;;;;;;;;;;;;;;;16.21;43.65;101863.81;4419067;32;20001;-70
2022/03/01 03:23:49;;;;;;;;;;;;;;;16.13;43.76;101867.31;4418318;32;19993;-70
2022/03/01 03:26:14;;;;;;;;;;;;;;;16.17;43.61;101859.47;4421255;32;20334;-70
2022/03/01 03:28:40;;;;;;;;;;;;;;;15.69;43.90;101866.91;4419153;32;20379;-70
2022/03/01 03:31:06;;;;;;;;;;;;;;;15.70;43.98;101876.19;4395829;32;19997;-70
2022/03/01 03:33:31;;;;;;;;;;;;;;;15.97;43.31;101865.31;4419352;32;19972;-70
2022/03/01 03:35:57;;;;;;;;;;;;;;;15.85;43.66;101868.88;4417690;32;20334;-70
2022/03/01 03:38:24;;;;;;;;;;;;;;;15.77;43.70;101870.31;4418585;32;20004;-70
2022/03/01 03:40:49;;;;;;;;;;;;;;;15.84;43.46;101870.91;4417901;32;19954;-70
2022/03/01 03:43:14;;;;;;;;;;;;;;;15.98;43.10;101881.91;4415591;32;20211;-70
2022/03/01 03:45:40;;;;;;;;;;;;;;;15.80;42.95;101878.75;4418434;32;20005;-70
2022/03/01 03:48:06;;;;;;;;;;;;;;;15.93;42.55;101871.06;4418560;32;20346;-70
2022/03/01 03:50:32;;;;;;;;;;;;;;;15.81;43.24;101871.81;4416813;32;20008;-70
2022/03/01 03:52:58;;;;;;;;;;;;;;;15.82;43.00;101878.31;4396992;32;20369;-70
2022/03/01 03:55:24;;;;;;;;;;;;;;;15.93;42.66;101873.13;4416267;32;19989;-70
2022/03/01 03:57:49;;;;;;;;;;;;;;;15.92;42.71;101888.56;4415757;32;20069;-70
2022/03/01 04:00:17;;;;;;;;;;;;;;;15.90;42.62;101883.31;4414884;32;19999;-70
2022/03/01 04:02:44;;;;;;;;;;;;;;;15.82;42.73;101883.97;4415528;32;20366;-70
2022/03/01 04:05:12;;;;;;;;;;;;;;;15.80;42.55;101887.25;4417604;32;19973;-70
2022/03/01 04:07:40;;;;;;;;;;;;;;;15.91;42.39;101890.63;4414319;32;20352;-70
2022/03/01 04:10:05;;;;;;;;;;;;;;;15.80;42.49;101890.09;4407256;32;19962;-70
2022/03/01 04:12:31;;;;;;;;;;;;;;;15.77;42.69;101887.34;4407971;32;19953;-70
2022/03/01 04:14:57;;;;;;;;;;;;;;;15.74;42.70;101891.09;4406505;32;19997;-70
2022/03/01 04:17:23;;;;;;;;;;;;;;;15.64;42.49;101897.84;4408668;32;20005;-70
2022/03/01 04:19:48;;;;;;;;;;;;;;;15.59;42.59;101902.00;4408173;32;19957;-70
2022/03/01 04:22:14;;;;;;;;;;;;;;;15.66;42.36;101903.88;4406961;32;21069;-70
2022/03/01 04:24:39;;;;;;;;;;;;;;;15.60;42.52;101905.66;4410173;32;20015;-70
2022/03/01 04:27:05;;;;;;;;;;;;;;;15.51;42.43;101911.16;4407784;32;20039;-70
2022/03/01 04:29:31;;;;;;;;;;;;;;;15.53;42.33;101911.53;4407523;32;20005;-70
2022/03/01 04:31:56;;;;;;;;;;;;;;;15.44;42.36;101911.34;4406400;32;20445;-70
2022/03/01 04:34:22;;;;;;;;;;;;;;;15.49;42.02;101911.59;4406362;32;20375;-70
2022/03/01 04:36:48;;;;;;;;;;;;;;;15.51;41.33;101914.81;4408096;32;20424;-70
2022/03/01 04:39:14;;;;;;;;;;;;;;;15.51;41.29;101908.31;4408095;32;20222;-70
2022/03/01 04:41:40;;;;;;;;;;;;;;;15.51;41.63;101928.19;4409844;32;19991;-70
2022/03/01 04:44:05;;;;;;;;;;;;;;;15.42;41.52;101913.81;4412693;32;20032;-70
2022/03/01 04:46:31;;;;;;;;;;;;;;;15.36;41.37;101927.72;4410454;32;19996;-70
2022/03/01 04:48:57;;;;;;;;;;;;;;;15.44;41.45;101925.53;4405572;32;20019;-70
2022/03/01 04:51:23;;;;;;;;;;;;;;;15.34;41.33;101926.56;4409460;32;19970;-70
2022/03/01 04:53:49;;;;;;;;;;;;;;;15.27;41.36;101932.41;4412827;32;19973;-70
2022/03/01 04:56:15;;;;;;;;;;;;;;;15.29;41.48;101932.78;4411573;32;20020;-70
2022/03/01 04:58:41;;;;;;;;;;;;;;;15.26;41.50;101937.31;4411889;32;19964;-70
2022/03/01 05:01:06;;;;;;;;;;;;;;;15.18;41.07;101940.72;4410431;32;20002;-70
2022/03/01 05:03:32;;;;;;;;;;;;;;;15.29;41.31;101932.78;4413318;32;19992;-70
2022/03/01 05:05:58;;;;;;;;;;;;;;;15.33;41.33;101930.62;4410662;32;20050;-71
2022/03/01 05:08:26;;;;;;;;;;;;;;;15.12;41.63;101939.66;4414245;32;19957;-70
2022/03/01 05:10:52;;;;;;;;;;;;;;;15.14;41.67;101945.69;4415456;32;20000;-70
2022/03/01 05:13:18;;;;;;;;;;;;;;;15.20;41.73;101941.91;4417700;32;20365;-70
2022/03/01 05:15:43;;;;;;;;;;;;;;;15.25;41.69;101937.75;4414602;32;19982;-70
2022/03/01 05:18:09;;;;;;;;;;;;;;;15.13;41.65;101932.75;4417356;32;20441;-70
2022/03/01 05:20:35;;;;;;;;;;;;;;;15.19;41.36;101942.34;4414021;32;19965;-70
2022/03/01 05:23:00;;;;;;;;;;;;;;;15.14;41.49;101943.66;4413250;32;19954;-70
2022/03/01 05:25:26;;;;;;;;;;;;;;;14.98;41.88;101949.31;4416674;32;20565;-70
2022/03/01 05:27:52;;;;;;;;;;;;;;;14.91;41.89;101938.13;4413918;32;20054;-70
2022/03/01 05:30:18;;;;;;;;;;;;;;;14.87;42.01;101951.56;4414688;32;20009;-70
2022/03/01 05:32:46;;;;;;;;;;;;;;;14.83;41.93;101948.03;4395417;32;19953;-70
2022/03/01 05:35:14;;;;;;;;;;;;;;;14.81;42.28;101949.69;4416912;32;19991;-70
2022/03/01 05:37:40;;;;;;;;;;;;;;;14.73;42.17;101956.75;4414808;32;20439;-70
2022/03/01 05:40:07;;;;;;;;;;;;;;;14.67;42.37;101953.62;4414495;32;19999;-70
2022/03/01 05:42:33;;;;;;;;;;;;;;;14.60;42.36;101961.50;4414373;32;20271;-70
2022/03/01 05:44:59;;;;;;;;;;;;;;;14.39;42.44;101957.06;4418438;32;20221;-70
2022/03/01 05:47:26;;;;;;;;;;;;;;;14.36;42.61;101949.44;4412040;32;19961;-70
2022/03/01 05:49:52;;;;;;;;;;;;;;;14.25;42.80;101957.34;4413030;32;19962;-70
2022/03/01 05:52:17;;;;;;;;;;;;;;;14.19;43.07;101947.72;4415793;32;20000;-70
2022/03/01 05:54:43;;;;;;;;;;;;;;;14.18;43.13;101959.50;4415466;32;19962;-70
2022/03/01 05:57:09;;;;;;;;;;;;;;;13.97;43.42;101944.50;4416493;32;20009;-70
2022/03/01 05:59:34;;;;;;;;;;;;;;;14.03;43.31;101953.31;4415130;32;20012;-70
2022/03/01 06:02:01;;;;;;;;;;;;;;;14.12;43.00;101942.22;4414219;32;19954;-70
2022/03/01 06:04:27;;;;;;;;;;;;;;;14.07;42.96;101948.37;4418156;32;20398;-70
2022/03/01 06:06:53;;;;;;;;;;;;;;;14.01;43.06;101950.09;4418403;32;20106;-70
2022/03/01 06:09:19;;;;;;;;;;;;;;;13.85;43.22;101950.00;4414978;32;19965;-70
2022/03/01 06:11:44;;;;;;;;;;;;;;;13.98;42.96;101962.28;4422337;32;20019;-70
2022/03/01 06:14:10;;;;;;;;;;;;;;;13.77;42.90;101952.16;4416782;32;19976;-70
2022/03/01 06:16:36;;;;;;;;;;;;;;;13.88;42.80;101968.94;4416788;32;20012;-70
2022/03/01 06:19:02;;;;;;;;;;;;;;;13.93;42.42;101972.06;4419298;32;20013;-70
2022/03/01 06:21:28;;;;;;;;;;;;;;;13.78;42.31;101975.59;4422097;32;19984;-70
2022/03/01 06:23:55;;;;;;;;;;;;;;;13.67;42.18;101977.81;4421802;32;20004;-70
2022/03/01 06:26:21;;;;;;;;;;;;;;;13.80;42.24;101970.31;4420635;32;19965;-70
2022/03/01 06:28:47;;;;;;;;;;;;;;;13.90;42.10;101970.09;4419278;32;20271;-70
2022/03/01 06:31:12;;;;;;;;;;;;;;;13.89;41.48;101977.00;4415619;32;19958;-70
2022/03/01 06:33:38;;;;;;;;;;;;;;;13.84;41.60;101979.53;4419608;32;20424;-70
2022/03/01 06:36:04;;;;;;;;;;;;;;;13.93;41.15;101983.41;4417616;32;19993;-70
2022/03/01 06:38:29;;;;;;;;;;;;;;;13.97;41.12;101986.19;4415632;32;19976;-70
2022/03/01 06:40:56;;;;;;;;;;;;;;;13.99;41.01;101976.00;4421400;32;20599;-70
2022/03/01 06:43:22;;;;;;;;;;;;;;;13.91;41.14;101973.75;4415854;32;20039;-70
2022/03/01 06:45:48;;;;;;;;;;;;;;;13.86;41.25;101985.56;4417760;32;19996;-70
2022/03/01 06:48:14;;;;;;;;;;;;;;;13.75;41.57;101985.72;4418994;32;20053;-70
2022/03/01 06:50:40;;;;;;;;;;;;;;;13.82;41.64;101999.78;4421156;32;19962;-70
2022/03/01 06:53:06;;;;;;;;;;;;;;;13.77;41.33;101991.78;4394333;32;19976;-71
2022/03/01 06:55:32;;;;;;;;;;;;;;;13.80;41.35;102005.06;4416338;32;19997;-70
2022/03/01 06:57:57;;;;;;;;;;;;;;;13.77;41.61;102016.44;4418032;32;20047;-70
2022/03/01 07:00:23;;;;;;;;;;;;;;;13.78;41.72;102024.50;4418775;32;19975;-71
2022/03/01 07:02:48;;;;;;;;;;;;;;;13.68;41.90;102019.81;4419715;32;19986;-71
2022/03/01 07:05:15;;;;;;;;;;;;;;;13.35;43.03;102019.97;4417746;32;20007;-71
2022/03/01 07:07:41;;;;;;;;;;;;;;;13.62;42.33;102035.66;4420222;32;19968;-70
2022/03/01 07:10:08;;;;;;;;;;;;;;;13.71;42.34;102035.94;4415157;32;20773;-70
2022/03/01 07:12:34;;;;;;;;;;;;;;;13.64;41.65;102041.72;4418163;32;20395;-70
2022/03/01 07:14:59;;;;;;;;;;;;;;;13.83;42.14;102041.00;4416136;32;20233;-70
2022/03/01 07:17:25;;;;;;;;;;;;;;;13.89;42.09;102050.59;4413037;32;20469;-70
2022/03/01 07:19:50;;;;;;;;;;;;;;;13.95;41.69;102054.53;4415001;32;19997;-70
2022/03/01 07:22:17;;;;;;;;;;;;;;;13.92;41.89;102049.72;4415894;32;20004;-70
2022/03/01 07:24:43;;;;;;;;;;;;;;;13.96;41.92;102050.47;4415597;32;20001;-70
2022/03/01 07:27:08;;;;;;;;;;;;;;;14.05;41.91;102064.06;4417638;32;19954;-70
2022/03/01 07:29:34;;;;;;;;;;;;;;;14.07;41.61;102062.41;4414336;32;20000;-70
2022/03/01 07:32:00;;;;;;;;;;;;;;;14.19;41.63;102063.81;4414469;32;20012;-71
2022/03/01 07:34:26;;;;;;;;;;;;;;;14.24;41.36;102057.72;4412958;32;19964;-70
2022/03/01 07:36:53;;;;;;;;;;;;;;;14.42;41.22;102072.31;4408318;32;20324;-70
2022/03/01 07:39:19;;;;;;;;;;;;;;;14.30;40.95;102075.00;4411739;32;20036;-70
2022/03/01 07:41:44;;;;;;;;;;;;;;;14.49;40.48;102074.22;4416177;32;19997;-70
2022/03/01 07:44:10;;;;;;;;;;;;;;;14.51;40.42;102078.22;4411114;32;20004;-70
2022/03/01 07:46:36;;;;;;;;;;;;;;;14.72;40.13;102074.16;4404016;32;20053;-71
2022/03/01 07:49:02;;;;;;;;;;;;;;;14.77;39.70;102079.34;4409892;32;20041;-71
2022/03/01 07:51:28;;;;;;;;;;;;;;;14.85;39.65;102081.59;4409127;32;20024;-71
2022/03/01 07:53:54;;;;;;;;;;;;;;;14.96;39.75;102092.72;4409577;32;20009;-71
2022/03/01 07:56:21;;;;;;;;;;;;;;;14.95;39.27;102091.13;4406561;32;20241;-71
2022/03/01 07:58:47;;;;;;;;;;;;;;;15.13;39.34;102092.34;4399968;32;20029;-71
2022/03/01 08:01:13;;;;;;;;;;;;;;;14.98;39.59;102101.59;4406096;32;20260;-71
2022/03/01 08:03:38;;;;;;;;;;;;;;;15.11;39.04;102111.03;4393423;32;19993;-72
2022/03/01 08:06:05;;;;;;;;;;;;;;;15.03;38.53;102113.22;4383640;32;20004;-72
2022/03/01 08:08:30;;;;;;;;;;;;;;;15.20;38.59;102122.59;4396922;32;19954;-72
2022/03/01 08:10:56;;;;;;;;;;;;;;;15.28;38.54;102116.31;4389070;32;19991;-72
2022/03/01 08:13:21;;;;;;;;;;;;;;;15.30;37.87;102121.56;4392227;32;20011;-72
2022/03/01 08:15:47;;;;;;;;;;;;;;;15.43;37.51;102131.03;4396697;32;20628;-73
2022/03/01 08:18:13;;;;;;;;;;;;;;;15.50;37.80;102128.06;4396415;32;19972;-72
2022/03/01 08:20:38;;;;;;;;;;;;;;;15.53;37.70;102136.47;4395755;32;20008;-72
2022/03/01 08:23:07;;;;;;;;;;;;;;;15.74;36.59;102127.47;4385399;32;19958;-71
2022/03/01 08:25:33;;;;;;;;;;;;;;;15.78;37.67;102138.75;4394771;32;20321;-72
2022/03/01 08:27:59;;;;;;;;;;;;;;;16.07;37.25;102139.66;4396255;32;19970;-72
2022/03/01 08:30:26;;;;;;;;;;;;;;;15.97;36.44;102135.06;4393684;32;19993;-73
2022/03/01 08:32:52;;;;;;;;;;;;;;;16.50;36.57;102153.66;4397371;32;20346;-72
2022/03/01 08:35:18;;;;;;;;;;;;;;;16.81;35.83;102154.84;4393507;32;20327;-73
2022/03/01 08:37:44;;;;;;;;;;;;;;;16.81;34.77;102152.78;4395629;32;20081;-72
2022/03/01 08:40:11;;;;;;;;;;;;;;;16.84;35.14;102160.41;4391951;32;19962;-72
2022/03/01 08:42:37;;;;;;;;;;;;;;;17.37;34.60;102151.16;4396654;32;20418;-73
2022/03/01 08:45:03;;;;;;;;;;;;;;;17.22;34.25;102149.19;4394304;32;19997;-72
2022/03/01 08:47:29;;;;;;;;;;;;;;;17.71;34.06;102148.50;4383614;32;20001;-72
2022/03/01 08:49:54;;;;;;;;;;;;;;;17.72;33.23;102146.47;4394756;32;21643;-70
2022/03/01 08:52:20;;;;;;;;;;;;;;;18.13;32.84;102157.75;4398418;32;19968;-73
2022/03/01 08:54:46;;;;;;;;;;;;;;;18.16;32.19;102145.44;4399614;32;19969;-74
2022/03/01 08:57:11;;;;;;;;;;;;;;;18.11;32.07;102153.78;4397624;32;20993;-72
2022/03/01 08:59:37;;;;;;;;;;;;;;;18.72;32.01;102154.16;4395655;32;20470;-72
2022/03/01 09:02:04;;;;;;;;;;;;;;;19.00;31.86;102159.66;4395989;32;20500;-74
2022/03/01 09:04:29;;;;;;;;;;;;;;;18.97;31.83;102154.06;4397016;32;19958;-73
2022/03/01 09:06:55;;;;;;;;;;;;;;;19.02;31.81;102142.06;4395239;32;19980;-70
2022/03/01 09:09:21;;;;;;;;;;;;;;;19.37;31.33;102149.31;4397179;32;20371;-73
2022/03/01 09:11:46;;;;;;;;;;;;;;;19.75;29.85;102144.16;4396813;32;20398;-73
2022/03/01 09:14:12;;;;;;;;;;;;;;;19.47;30.99;102148.94;4395425;32;20001;-72
2022/03/01 09:16:38;;;;;;;;;;;;;;;19.49;30.36;102140.66;4398549;32;20028;-71
2022/03/01 09:19:04;;;;;;;;;;;;;;;19.39;29.73;102138.25;4396153;32;20029;-72
2022/03/01 09:21:30;;;;;;;;;;;;;;;19.83;29.98;102136.91;4396684;32;20004;-72
2022/03/01 09:23:56;;;;;;;;;;;;;;;19.65;30.48;102142.53;4397875;32;19972;-71
2022/03/01 09:26:22;;;;;;;;;;;;;;;19.85;30.19;102151.50;4397280;32;20364;-72
2022/03/01 09:28:47;;;;;;;;;;;;;;;20.01;29.54;102151.28;4396899;32;20802;-72
2022/03/01 09:31:13;;;;;;;;;;;;;;;20.00;30.05;102157.47;4399435;32;20326;-72
2022/03/01 09:33:42;;;;;;;;;;;;;;;19.58;29.69;102154.22;4399462;32;20042;-72
2022/03/01 09:36:10;;;;;;;;;;;;;;;19.86;29.39;102150.25;4394881;32;20012;-71
2022/03/01 09:38:35;;;;;;;;;;;;;;;20.46;28.68;102160.00;4395832;32;19965;-72
2022/03/01 09:41:01;;;;;;;;;;;;;;;20.44;28.44;102153.97;4395563;32;20357;-72
2022/03/01 09:43:27;;;;;;;;;;;;;;;20.43;28.58;102145.88;4400042;32;20027;-72
2022/03/01 09:45:53;;;;;;;;;;;;;;;20.43;28.98;102145.88;4394522;32;19997;-72
2022/03/01 09:48:19;;;;;;;;;;;;;;;20.45;28.61;102149.84;4399502;32;20144;-72
2022/03/01 09:50:46;;;;;;;;;;;;;;;21.17;27.95;102155.66;4393710;32;20287;-73
2022/03/01 09:53:11;;;;;;;;;;;;;;;21.45;27.76;102147.84;4399405;32;20677;-70
2022/03/01 09:55:37;;;;;;;;;;;;;;;21.01;28.19;102150.25;4396272;32;20005;-71
2022/03/01 09:58:02;;;;;;;;;;;;;;;21.54;27.40;102145.72;4395660;32;20005;-71
2022/03/01 10:00:28;;;;;;;;;;;;;;;21.89;27.35;102145.31;4396810;32;20028;-71
2022/03/01 10:02:55;;;;;;;;;;;;;;;21.19;27.22;102152.31;4394996;32;20021;-71
2022/03/01 10:05:31;;;;;;;;;;;;;;;21.69;26.83;102151.56;4397247;32;20225;-74
2022/03/01 10:08:05;;;;;;;;;;;;;;;21.98;26.86;102146.09;4396227;32;20035;-72
2022/03/01 10:10:38;;;;;;;;;;;;;;;21.46;26.95;102143.69;4395536;32;20331;-72
2022/03/01 10:13:04;;;;;;;;;;;;;;;21.61;27.24;102153.19;4396430;32;19976;-72
2022/03/01 10:15:31;;;;;;;;;;;;;;;22.31;27.05;102157.56;4397185;32;20364;-72
2022/03/01 10:17:57;;;;;;;;;;;;;;;21.42;27.52;102146.69;4395178;32;20003;-72
2022/03/01 10:20:23;;;;;;;;;;;;;;;21.91;27.15;102149.31;4398119;32;20350;-72
2022/03/01 10:22:50;;;;;;;;;;;;;;;22.07;26.99;102146.06;4397437;32;20004;-71
2022/03/01 10:25:17;;;;;;;;;;;;;;;22.19;26.73;102147.12;4402090;32;20345;-71
2022/03/01 10:27:43;;;;;;;;;;;;;;;21.71;27.43;102149.03;4399518;32;20027;-71
2022/03/01 10:30:09;;;;;;;;;;;;;;;22.02;26.75;102151.63;4397189;32;20005;-71
2022/03/01 10:32:35;;;;;;;;;;;;;;;21.89;26.86;102143.25;4399364;32;19996;-72
2022/03/01 10:37:37;;;;;;;;;;;;;;;23.70;25.26;102159.97;3928184;32;16389451;-73
2022/03/01 10:40:19;;;;;;;;;;;;;;;23.70;25.26;102159.97;4431595;32;19973;-74
2022/03/01 10:42:45;;;;;;;;;;;;;;;24.07;25.06;102164.03;4430698;32;20052;-74
2022/03/01 10:45:12;;;;;;;;;;;;;;;23.37;25.69;102165.91;4432084;32;19990;-75
2022/03/01 10:47:38;;;;;;;;;;;;;;;23.73;25.16;102164.72;4433537;32;19993;-73
2022/03/01 10:50:06;;;;;;;;;;;;;;;23.74;25.28;102159.78;4417105;32;19964;-73
2022/03/01 10:52:33;;;;;;;;;;;;;;;24.01;25.04;102174.66;4428613;32;19949;-73
2022/03/01 10:54:59;;;;;;;;;;;;;;;23.83;25.41;102165.44;4430193;32;20037;-71
2022/03/01 10:57:25;;;;;;;;;;;;;;;24.00;24.63;102167.31;4428354;32;19990;-72
2022/03/01 10:59:51;;;;;;;;;;;;;;;23.73;25.09;102163.94;4429472;32;20004;-71
2022/03/01 11:02:17;;;;;;;;;;;;;;;23.64;25.31;102169.78;4430305;32;20314;-71
2022/03/01 11:04:42;;;;;;;;;;;;;;;24.03;24.91;102165.53;4429443;32;20416;-71
2022/03/01 11:07:09;;;;;;;;;;;;;;;23.64;25.37;102159.09;4431638;32;19953;-72
2022/03/01 11:09:35;;;;;;;;;;;;;;;23.60;25.61;102161.38;4430522;32;20416;-72
2022/03/01 11:12:02;;;;;;;;;;;;;;;23.71;25.41;102155.81;4429739;32;20303;-72
2022/03/01 11:14:34;;;;;;;;;;;;;;;22.47;26.49;102149.34;4418508;32;20014;-72
2022/03/01 11:17:04;;;;;;;;;;;;;;;23.02;26.69;102149.78;4429144;32;19952;-73
2022/03/01 11:19:49;;;;;;;;;;;;;;;23.49;26.46;102161.97;4430372;32;20112;-72
2022/03/01 11:22:35;;;;;;;;;;;;;;;23.64;25.63;102153.34;4432376;32;19981;-72
2022/03/01 11:25:01;;;;;;;;;;;;;;;23.84;25.57;102144.78;4430167;32;20359;-72
2022/03/01 11:27:26;;;;;;;;;;;;;;;23.87;25.92;102146.66;4430115;32;20054;-74
2022/03/01 11:30:03;;;;;;;;;;;;;;;23.86;25.62;102139.34;4428073;32;20011;-73
2022/03/01 11:32:36;;;;;;;;;;;;;;;24.67;24.76;102141.13;4431352;32;20000;-72
2022/03/01 11:35:02;;;;;;;;;;;;;;;25.12;24.42;102134.63;4429481;32;20340;-73
2022/03/01 11:37:28;;;;;;;;;;;;;;;24.59;24.92;102131.31;4430589;32;20038;-73
2022/03/01 11:39:55;;;;;;;;;;;;;;;24.64;24.66;102132.69;4427888;32;20005;-72
2022/03/01 11:42:21;;;;;;;;;;;;;;;23.89;25.33;102126.03;4430430;32;20021;-71
2022/03/01 11:44:48;;;;;;;;;;;;;;;24.14;25.37;102128.31;4431658;32;19965;-71
2022/03/01 11:47:23;;;;;;;;;;;;;;;25.22;24.23;102136.03;4428105;32;20043;-71
2022/03/01 11:49:48;;;;;;;;;;;;;;;25.26;24.12;102138.72;4420715;32;20004;-71
2022/03/01 11:52:17;;;;;;;;;;;;;;;25.48;23.28;102129.53;4419400;32;20397;-72
2022/03/01 11:54:43;;;;;;;;;;;;;;;24.10;25.37;102131.41;4420577;32;19997;-71
2022/03/01 11:57:10;;;;;;;;;;;;;;;24.60;24.58;102126.34;4420162;32;20450;-71
2022/03/01 11:59:37;;;;;;;;;;;;;;;25.15;24.23;102130.75;4419401;32;19989;-71
2022/03/01 12:02:06;;;;;;;;;;;;;;;25.53;23.64;102128.78;4420208;32;20049;-71
2022/03/01 12:04:31;;;;;;;;;;;;;;;26.06;23.46;102129.00;4420203;32;20012;-69
2022/03/01 12:06:57;;;;;;;;;;;;;;;26.16;22.88;102139.03;4413516;32;19957;-72
2022/03/01 12:09:24;;;;;;;;;;;;;;;25.94;23.03;102131.00;4418214;32;19994;-71
2022/03/01 12:12:02;;;;;;;;;;;;;;;25.03;24.47;102122.47;4417066;32;20348;-71
2022/03/01 12:14:29;;;;;;;;;;;;;;;25.41;24.00;102122.13;4416583;32;20468;-71
2022/03/01 12:16:54;;;;;;;;;;;;;;;25.22;24.20;102126.62;4419982;32;20352;-70
2022/03/01 12:19:21;;;;;;;;;;;;;;;24.82;24.22;102118.81;4417652;32;20271;-70
2022/03/01 12:21:49;;;;;;;;;;;;;;;25.02;24.40;102118.00;4415649;32;20407;-70
2022/03/01 12:24:15;;;;;;;;;;;;;;;24.38;24.54;102115.34;4419030;32;20429;-71
2022/03/01 12:26:42;;;;;;;;;;;;;;;24.44;25.07;102113.31;4417913;32;19963;-70
2022/03/01 12:29:09;;;;;;;;;;;;;;;24.91;24.45;102110.03;4418572;32;20016;-71
2022/03/01 12:31:34;;;;;;;;;;;;;;;23.79;26.11;102110.19;4421466;32;20400;-71
2022/03/01 12:34:02;;;;;;;;;;;;;;;24.03;26.14;102100.19;4419712;32;20848;-71
2022/03/01 12:36:29;;;;;;;;;;;;;;;24.84;25.19;102109.66;4415899;32;20048;-71